Terminal Aerodrome Forecast
Issued by NWS

Home | Current Version | Previous Version | Text Only | Print | Product List | Glossary On
Versions: 1 2 3 4 5 6 7 8 9 10 11 12 13 14 15 16 17 18 19 20 21 22 23 24 25 26 27 28 29 30 31 32 33 34 35 36 37 38 39 40
000
FTUS41 KBOX 241120
TAFBED
TAF
KBED 241120Z 2412/2512 18010KT P6SM OVC100
     FM241700 21012G24KT P6SM OVC035
     FM241900 21012G23KT P6SM -RA OVC035
     FM242100 21011G22KT P6SM OVC035
     FM250000 22008KT P6SM BKN035
     FM250200 23007KT P6SM BKN050=

USA.gov is the U.S. government's official web portal to all federal, state and local government web resources and services.